sensor_id;sensor_type;location;lat;lon;timestamp;pressure;altitude;pressure_sealevel;temperature;humidity
73681;BME280;61979;53.536;8.082;2022-08-14T00:00:44;101609.63;;;23.69;56.21
73681;BME280;61979;53.536;8.082;2022-08-14T00:01:45;101599.84;;;23.73;55.81
73681;BME280;61979;53.536;8.082;2022-08-14T00:02:46;101608.59;;;23.72;55.63
73681;BME280;61979;53.536;8.082;2022-08-14T00:03:46;101607.75;;;23.71;56.22
73681;BME280;61979;53.536;8.082;2022-08-14T00:04:47;101605.06;;;23.73;56.13
73681;BME280;61979;53.536;8.082;2022-08-14T00:05:47;101598.16;;;23.72;55.62
73681;BME280;61979;53.536;8.082;2022-08-14T00:06:48;101603.38;;;23.72;55.59
73681;BME280;61979;53.536;8.082;2022-08-14T00:07:49;101597.66;;;23.81;55.75
73681;BME280;61979;53.536;8.082;2022-08-14T00:08:49;101608.25;;;23.78;56.04
73681;BME280;61979;53.536;8.082;2022-08-14T00:09:50;101606.59;;;23.77;56.24
73681;BME280;61979;53.536;8.082;2022-08-14T00:10:51;101605.41;;;23.67;56.02
73681;BME280;61979;53.536;8.082;2022-08-14T00:11:52;101610.63;;;23.67;56.25
73681;BME280;61979;53.536;8.082;2022-08-14T00:12:54;101604.56;;;23.66;56.11
73681;BME280;61979;53.536;8.082;2022-08-14T00:13:55;101615.06;;;23.65;56.74
73681;BME280;61979;53.536;8.082;2022-08-14T00:14:56;101607.84;;;23.70;56.21
73681;BME280;61979;53.536;8.082;2022-08-14T00:15:58;101603.63;;;23.67;56.52
73681;BME280;61979;53.536;8.082;2022-08-14T00:16:59;101602.63;;;23.70;55.83
73681;BME280;61979;53.536;8.082;2022-08-14T00:18:00;101601.88;;;23.68;56.18
73681;BME280;61979;53.536;8.082;2022-08-14T00:19:00;101605.41;;;23.67;55.98
73681;BME280;61979;53.536;8.082;2022-08-14T00:20:01;101604.22;;;23.57;56.79
73681;BME280;61979;53.536;8.082;2022-08-14T00:21:02;101602.56;;;23.56;56.47
73681;BME280;61979;53.536;8.082;2022-08-14T00:22:02;101607.59;;;23.59;56.71
73681;BME280;61979;53.536;8.082;2022-08-14T00:23:05;101602.19;;;23.62;56.43
73681;BME280;61979;53.536;8.082;2022-08-14T00:24:05;101598.53;;;23.66;56.46
73681;BME280;61979;53.536;8.082;2022-08-14T00:25:07;101600.28;;;23.65;56.57
73681;BME280;61979;53.536;8.082;2022-08-14T00:26:08;101594.63;;;23.73;56.21
73681;BME280;61979;53.536;8.082;2022-08-14T00:27:08;101603.06;;;23.78;55.83
73681;BME280;61979;53.536;8.082;2022-08-14T00:28:11;101598.03;;;23.75;56.36
73681;BME280;61979;53.536;8.082;2022-08-14T00:29:12;101593.31;;;23.66;56.65
73681;BME280;61979;53.536;8.082;2022-08-14T00:30:14;101596.59;;;23.69;56.65
73681;BME280;61979;53.536;8.082;2022-08-14T00:31:15;101596.41;;;23.72;55.86
73681;BME280;61979;53.536;8.082;2022-08-14T00:32:15;101597.41;;;23.70;56.40
73681;BME280;61979;53.536;8.082;2022-08-14T00:33:16;101589.59;;;23.70;56.03
73681;BME280;61979;53.536;8.082;2022-08-14T00:34:16;101584.41;;;23.70;56.49
73681;BME280;61979;53.536;8.082;2022-08-14T00:35:16;101592.03;;;23.73;56.08
73681;BME280;61979;53.536;8.082;2022-08-14T00:36:17;101585.94;;;23.74;56.58
73681;BME280;61979;53.536;8.082;2022-08-14T00:37:17;101584.91;;;23.76;56.35
73681;BME280;61979;53.536;8.082;2022-08-14T00:38:19;101587.75;;;23.72;56.53
73681;BME280;61979;53.536;8.082;2022-08-14T00:39:19;101580.72;;;23.74;56.04
73681;BME280;61979;53.536;8.082;2022-08-14T00:40:20;101583.47;;;23.71;56.48
73681;BME280;61979;53.536;8.082;2022-08-14T00:41:20;101586.75;;;23.74;56.28
73681;BME280;61979;53.536;8.082;2022-08-14T00:42:21;101582.22;;;23.78;56.79
73681;BME280;61979;53.536;8.082;2022-08-14T00:43:22;101588.03;;;23.83;56.55
73681;BME280;61979;53.536;8.082;2022-08-14T00:44:23;101582.28;;;23.76;56.83
73681;BME280;61979;53.536;8.082;2022-08-14T00:45:24;101580.13;;;23.69;56.94
73681;BME280;61979;53.536;8.082;2022-08-14T00:46:25;101583.84;;;23.65;57.16
73681;BME280;61979;53.536;8.082;2022-08-14T00:47:25;101568.34;;;23.62;57.06
73681;BME280;61979;53.536;8.082;2022-08-14T00:48:26;101578.53;;;23.66;57.20
73681;BME280;61979;53.536;8.082;2022-08-14T00:49:26;101573.81;;;23.73;56.77
73681;BME280;61979;53.536;8.082;2022-08-14T00:50:28;101573.47;;;23.79;56.89
73681;BME280;61979;53.536;8.082;2022-08-14T00:51:30;101570.59;;;23.85;56.68
73681;BME280;61979;53.536;8.082;2022-08-14T00:52:32;101566.00;;;23.73;57.31
73681;BME280;61979;53.536;8.082;2022-08-14T00:53:34;101568.59;;;23.73;56.97
73681;BME280;61979;53.536;8.082;2022-08-14T00:54:35;101570.63;;;23.68;57.44
73681;BME280;61979;53.536;8.082;2022-08-14T00:55:38;101562.06;;;23.66;56.94
73681;BME280;61979;53.536;8.082;2022-08-14T00:56:42;101562.66;;;23.71;56.72
73681;BME280;61979;53.536;8.082;2022-08-14T00:57:42;101563.41;;;23.73;57.16
73681;BME280;61979;53.536;8.082;2022-08-14T00:58:42;101567.84;;;23.71;57.33
73681;BME280;61979;53.536;8.082;2022-08-14T00:59:43;101561.91;;;23.69;56.79
73681;BME280;61979;53.536;8.082;2022-08-14T01:00:44;101568.09;;;23.66;57.19
73681;BME280;61979;53.536;8.082;2022-08-14T01:01:47;101557.19;;;23.60;57.40
73681;BME280;61979;53.536;8.082;2022-08-14T01:02:48;101558.94;;;23.59;57.47
73681;BME280;61979;53.536;8.082;2022-08-14T01:03:51;101566.84;;;23.58;58.05
73681;BME280;61979;53.536;8.082;2022-08-14T01:04:56;101563.56;;;23.54;57.82
73681;BME280;61979;53.536;8.082;2022-08-14T01:06:08;101561.66;;;23.58;57.67
73681;BME280;61979;53.536;8.082;2022-08-14T01:07:11;101557.94;;;23.62;57.10
73681;BME280;61979;53.536;8.082;2022-08-14T01:08:11;101562.22;;;23.63;57.70
73681;BME280;61979;53.536;8.082;2022-08-14T01:09:13;101562.16;;;23.64;57.34
73681;BME280;61979;53.536;8.082;2022-08-14T01:10:14;101560.22;;;23.68;57.19
73681;BME280;61979;53.536;8.082;2022-08-14T01:11:15;101560.22;;;23.68;57.32
73681;BME280;61979;53.536;8.082;2022-08-14T01:12:17;101557.63;;;23.68;57.63
73681;BME280;61979;53.536;8.082;2022-08-14T01:13:23;101558.78;;;23.62;57.36
73681;BME280;61979;53.536;8.082;2022-08-14T01:14:24;101554.53;;;23.61;57.57
73681;BME280;61979;53.536;8.082;2022-08-14T01:15:24;101557.19;;;23.60;57.71
73681;BME280;61979;53.536;8.082;2022-08-14T01:16:24;101553.47;;;23.64;57.88
73681;BME280;61979;53.536;8.082;2022-08-14T01:17:28;101552.00;;;23.60;57.89
73681;BME280;61979;53.536;8.082;2022-08-14T01:18:49;101553.66;;;23.61;57.78
73681;BME280;61979;53.536;8.082;2022-08-14T01:20:08;101553.47;;;23.64;57.80
73681;BME280;61979;53.536;8.082;2022-08-14T01:21:31;101550.31;;;23.59;57.41
73681;BME280;61979;53.536;8.082;2022-08-14T01:22:32;101552.91;;;23.59;57.52
73681;BME280;61979;53.536;8.082;2022-08-14T01:23:40;101554.91;;;23.54;57.86
73681;BME280;61979;53.536;8.082;2022-08-14T01:24:41;101557.38;;;23.57;58.20
73681;BME280;61979;53.536;8.082;2022-08-14T01:25:42;101546.78;;;23.60;57.52
73681;BME280;61979;53.536;8.082;2022-08-14T01:26:42;101556.19;;;23.62;57.26
73681;BME280;61979;53.536;8.082;2022-08-14T01:27:43;101547.53;;;23.62;57.67
73681;BME280;61979;53.536;8.082;2022-08-14T01:28:43;101551.31;;;23.72;57.21
73681;BME280;61979;53.536;8.082;2022-08-14T01:29:50;101542.22;;;23.79;57.34
73681;BME280;61979;53.536;8.082;2022-08-14T01:30:52;101548.03;;;23.84;57.14
73681;BME280;61979;53.536;8.082;2022-08-14T01:31:56;101545.59;;;23.81;56.67
73681;BME280;61979;53.536;8.082;2022-08-14T01:33:00;101546.78;;;23.75;57.03
73681;BME280;61979;53.536;8.082;2022-08-14T01:34:05;101551.41;;;23.70;57.30
73681;BME280;61979;53.536;8.082;2022-08-14T01:35:06;101536.03;;;23.66;57.20
73681;BME280;61979;53.536;8.082;2022-08-14T01:36:08;101549.81;;;23.68;57.43
73681;BME280;61979;53.536;8.082;2022-08-14T01:37:08;101544.78;;;23.65;57.97
73681;BME280;61979;53.536;8.082;2022-08-14T01:38:11;101537.88;;;23.64;57.72
73681;BME280;61979;53.536;8.082;2022-08-14T01:39:16;101539.72;;;23.62;57.92
73681;BME280;61979;53.536;8.082;2022-08-14T01:40:21;101542.25;;;23.63;57.79
73681;BME280;61979;53.536;8.082;2022-08-14T01:41:23;101534.38;;;23.65;57.80
73681;BME280;61979;53.536;8.082;2022-08-14T01:42:25;101539.06;;;23.74;57.55
73681;BME280;61979;53.536;8.082;2022-08-14T01:43:28;101542.66;;;23.71;57.41
73681;BME280;61979;53.536;8.082;2022-08-14T01:44:30;101533.00;;;23.73;56.98
73681;BME280;61979;53.536;8.082;2022-08-14T01:45:30;101536.19;;;23.78;56.87
73681;BME280;61979;53.536;8.082;2022-08-14T01:46:35;101536.59;;;23.71;57.55
73681;BME280;61979;53.536;8.082;2022-08-14T01:47:36;101539.06;;;23.74;56.94
73681;BME280;61979;53.536;8.082;2022-08-14T01:48:38;101538.47;;;23.69;57.03
73681;BME280;61979;53.536;8.082;2022-08-14T01:49:41;101535.88;;;23.69;57.57
73681;BME280;61979;53.536;8.082;2022-08-14T01:50:41;101537.53;;;23.70;56.75
73681;BME280;61979;53.536;8.082;2022-08-14T01:51:42;101541.06;;;23.69;57.37
73681;BME280;61979;53.536;8.082;2022-08-14T01:52:43;101536.38;;;23.60;57.88
73681;BME280;61979;53.536;8.082;2022-08-14T01:53:45;101531.34;;;23.57;57.72
73681;BME280;61979;53.536;8.082;2022-08-14T01:54:48;101532.91;;;23.59;57.55
73681;BME280;61979;53.536;8.082;2022-08-14T01:55:48;101534.88;;;23.56;57.72
73681;BME280;61979;53.536;8.082;2022-08-14T01:56:52;101540.22;;;23.53;58.27
73681;BME280;61979;53.536;8.082;2022-08-14T01:57:55;101535.69;;;23.56;57.73
73681;BME280;61979;53.536;8.082;2022-08-14T01:58:55;101532.28;;;23.56;57.84
73681;BME280;61979;53.536;8.082;2022-08-14T01:59:56;101531.84;;;23.63;57.61
73681;BME280;61979;53.536;8.082;2022-08-14T02:00:57;101530.16;;;23.62;57.29
73681;BME280;61979;53.536;8.082;2022-08-14T02:02:00;101522.25;;;23.64;57.30
73681;BME280;61979;53.536;8.082;2022-08-14T02:03:03;101525.97;;;23.60;58.21
73681;BME280;61979;53.536;8.082;2022-08-14T02:04:04;101525.88;;;23.61;57.55
73681;BME280;61979;53.536;8.082;2022-08-14T02:05:05;101528.81;;;23.55;58.13
73681;BME280;61979;53.536;8.082;2022-08-14T02:06:07;101520.59;;;23.48;58.39
73681;BME280;61979;53.536;8.082;2022-08-14T02:07:10;101522.59;;;23.58;57.89
73681;BME280;61979;53.536;8.082;2022-08-14T02:08:11;101524.09;;;23.62;57.89
73681;BME280;61979;53.536;8.082;2022-08-14T02:09:11;101527.31;;;23.67;57.41
73681;BME280;61979;53.536;8.082;2022-08-14T02:10:13;101529.06;;;23.66;57.31
73681;BME280;61979;53.536;8.082;2022-08-14T02:11:13;101519.63;;;23.64;57.92
73681;BME280;61979;53.536;8.082;2022-08-14T02:12:16;101515.28;;;23.64;57.72
73681;BME280;61979;53.536;8.082;2022-08-14T02:13:17;101517.41;;;23.58;57.67
73681;BME280;61979;53.536;8.082;2022-08-14T02:14:19;101514.88;;;23.56;58.40
73681;BME280;61979;53.536;8.082;2022-08-14T02:15:19;101513.69;;;23.62;58.04
73681;BME280;61979;53.536;8.082;2022-08-14T02:16:23;101511.50;;;23.70;57.87
73681;BME280;61979;53.536;8.082;2022-08-14T02:17:27;101514.44;;;23.64;57.74
73681;BME280;61979;53.536;8.082;2022-08-14T02:18:28;101511.09;;;23.62;58.05
73681;BME280;61979;53.536;8.082;2022-08-14T02:19:30;101506.28;;;23.70;57.89
73681;BME280;61979;53.536;8.082;2022-08-14T02:20:31;101502.34;;;23.63;58.21
73681;BME280;61979;53.536;8.082;2022-08-14T02:21:33;101512.19;;;23.58;58.44
73681;BME280;61979;53.536;8.082;2022-08-14T02:22:35;101503.78;;;23.53;58.31
73681;BME280;61979;53.536;8.082;2022-08-14T02:23:38;101507.63;;;23.46;58.38
73681;BME280;61979;53.536;8.082;2022-08-14T02:24:38;101509.25;;;23.48;58.11
73681;BME280;61979;53.536;8.082;2022-08-14T02:25:39;101500.44;;;23.51;58.96
73681;BME280;61979;53.536;8.082;2022-08-14T02:26:41;101500.19;;;23.40;59.03
73681;BME280;61979;53.536;8.082;2022-08-14T02:27:42;101498.66;;;23.36;58.84
73681;BME280;61979;53.536;8.082;2022-08-14T02:28:45;101499.59;;;23.35;58.50
73681;BME280;61979;53.536;8.082;2022-08-14T02:29:46;101500.44;;;23.36;58.70
73681;BME280;61979;53.536;8.082;2022-08-14T02:30:47;101500.25;;;23.39;59.16
73681;BME280;61979;53.536;8.082;2022-08-14T02:31:50;101501.00;;;23.41;59.52
73681;BME280;61979;53.536;8.082;2022-08-14T02:32:51;101506.16;;;23.27;59.71
73681;BME280;61979;53.536;8.082;2022-08-14T02:33:51;101505.22;;;23.28;59.65
73681;BME280;61979;53.536;8.082;2022-08-14T02:34:52;101502.88;;;23.39;58.92
73681;BME280;61979;53.536;8.082;2022-08-14T02:35:52;101503.38;;;23.45;59.59
73681;BME280;61979;53.536;8.082;2022-08-14T02:36:57;101504.78;;;23.50;59.01
73681;BME280;61979;53.536;8.082;2022-08-14T02:37:59;101499.44;;;23.53;59.43
73681;BME280;61979;53.536;8.082;2022-08-14T02:38:59;101494.22;;;23.53;58.92
73681;BME280;61979;53.536;8.082;2022-08-14T02:40:00;101497.09;;;23.49;59.52
73681;BME280;61979;53.536;8.082;2022-08-14T02:41:02;101497.75;;;23.37;59.55
73681;BME280;61979;53.536;8.082;2022-08-14T02:42:04;101493.78;;;23.30;59.85
73681;BME280;61979;53.536;8.082;2022-08-14T02:43:04;101494.38;;;23.35;60.21
73681;BME280;61979;53.536;8.082;2022-08-14T02:44:06;101492.28;;;23.26;60.29
73681;BME280;61979;53.536;8.082;2022-08-14T02:45:09;101486.16;;;23.27;60.00
73681;BME280;61979;53.536;8.082;2022-08-14T02:46:10;101482.13;;;23.37;59.36
73681;BME280;61979;53.536;8.082;2022-08-14T02:47:11;101490.72;;;23.39;59.71
73681;BME280;61979;53.536;8.082;2022-08-14T02:48:13;101481.38;;;23.35;59.96
73681;BME280;61979;53.536;8.082;2022-08-14T02:49:14;101482.38;;;23.33;59.87
73681;BME280;61979;53.536;8.082;2022-08-14T02:50:14;101488.19;;;23.38;59.07
73681;BME280;61979;53.536;8.082;2022-08-14T02:51:16;101475.25;;;23.36;59.30
73681;BME280;61979;53.536;8.082;2022-08-14T02:52:16;101475.09;;;23.39;59.35
73681;BME280;61979;53.536;8.082;2022-08-14T02:53:16;101478.78;;;23.35;59.93
73681;BME280;61979;53.536;8.082;2022-08-14T02:54:17;101475.84;;;23.41;59.56
73681;BME280;61979;53.536;8.082;2022-08-14T02:55:19;101476.09;;;23.37;59.85
73681;BME280;61979;53.536;8.082;2022-08-14T02:56:19;101486.06;;;23.44;58.68
73681;BME280;61979;53.536;8.082;2022-08-14T02:57:20;101476.84;;;23.39;59.25
73681;BME280;61979;53.536;8.082;2022-08-14T02:58:22;101478.78;;;23.35;59.33
73681;BME280;61979;53.536;8.082;2022-08-14T02:59:24;101483.22;;;23.33;59.48
73681;BME280;61979;53.536;8.082;2022-08-14T03:00:27;101478.09;;;23.32;59.86
73681;BME280;61979;53.536;8.082;2022-08-14T03:01:28;101474.56;;;23.17;60.30
73681;BME280;61979;53.536;8.082;2022-08-14T03:02:28;101470.75;;;23.07;60.47
73681;BME280;61979;53.536;8.082;2022-08-14T03:03:35;101475.03;;;23.08;60.38
73681;BME280;61979;53.536;8.082;2022-08-14T03:04:36;101466.13;;;23.12;60.31
73681;BME280;61979;53.536;8.082;2022-08-14T03:05:37;101469.38;;;23.17;60.22
73681;BME280;61979;53.536;8.082;2022-08-14T03:06:39;101462.31;;;23.19;60.62
73681;BME280;61979;53.536;8.082;2022-08-14T03:07:42;101470.88;;;23.21;60.74
73681;BME280;61979;53.536;8.082;2022-08-14T03:08:43;101471.66;;;23.23;60.39
73681;BME280;61979;53.536;8.082;2022-08-14T03:09:43;101463.16;;;23.20;60.26
73681;BME280;61979;53.536;8.082;2022-08-14T03:10:45;101470.13;;;23.19;60.53
73681;BME280;61979;53.536;8.082;2022-08-14T03:11:45;101461.56;;;23.17;60.63
73681;BME280;61979;53.536;8.082;2022-08-14T03:12:46;101459.25;;;23.11;60.88
73681;BME280;61979;53.536;8.082;2022-08-14T03:13:49;101457.91;;;23.04;60.63
73681;BME280;61979;53.536;8.082;2022-08-14T03:14:53;101455.91;;;23.09;60.95
73681;BME280;61979;53.536;8.082;2022-08-14T03:15:53;101452.16;;;23.15;60.24
73681;BME280;61979;53.536;8.082;2022-08-14T03:16:54;101444.75;;;23.07;60.85
73681;BME280;61979;53.536;8.082;2022-08-14T03:17:54;101447.63;;;23.18;60.62
73681;BME280;61979;53.536;8.082;2022-08-14T03:18:55;101456.22;;;23.03;61.80
73681;BME280;61979;53.536;8.082;2022-08-14T03:19:59;101439.28;;;22.96;61.40
73681;BME280;61979;53.536;8.082;2022-08-14T03:21:02;101445.25;;;22.98;61.52
73681;BME280;61979;53.536;8.082;2022-08-14T03:22:03;101439.00;;;22.85;62.23
73681;BME280;61979;53.536;8.082;2022-08-14T03:23:05;101440.09;;;22.81;62.00
73681;BME280;61979;53.536;8.082;2022-08-14T03:24:05;101438.09;;;22.86;61.58
73681;BME280;61979;53.536;8.082;2022-08-14T03:25:11;101433.31;;;22.94;61.74
73681;BME280;61979;53.536;8.082;2022-08-14T03:26:14;101435.16;;;22.92;61.94
73681;BME280;61979;53.536;8.082;2022-08-14T03:27:18;101434.66;;;23.01;61.72
73681;BME280;61979;53.536;8.082;2022-08-14T03:28:18;101434.75;;;23.00;61.16
73681;BME280;61979;53.536;8.082;2022-08-14T03:29:18;101439.44;;;22.93;61.89
73681;BME280;61979;53.536;8.082;2022-08-14T03:30:19;101434.00;;;22.82;62.49
73681;BME280;61979;53.536;8.082;2022-08-14T03:31:20;101432.31;;;22.81;62.73
73681;BME280;61979;53.536;8.082;2022-08-14T03:32:22;101436.66;;;22.81;62.47
73681;BME280;61979;53.536;8.082;2022-08-14T03:33:23;101433.03;;;22.68;63.23
73681;BME280;61979;53.536;8.082;2022-08-14T03:34:24;101436.41;;;22.70;63.21
73681;BME280;61979;53.536;8.082;2022-08-14T03:35:27;101435.91;;;22.79;62.64
73681;BME280;61979;53.536;8.082;2022-08-14T03:36:27;101431.78;;;22.75;63.06
73681;BME280;61979;53.536;8.082;2022-08-14T03:37:31;101439.75;;;22.72;62.98
73681;BME280;61979;53.536;8.082;2022-08-14T03:38:33;101446.91;;;22.84;62.06
73681;BME280;61979;53.536;8.082;2022-08-14T03:39:33;101448.53;;;22.69;63.22
73681;BME280;61979;53.536;8.082;2022-08-14T03:40:34;101442.59;;;22.67;63.29
73681;BME280;61979;53.536;8.082;2022-08-14T03:41:37;101447.97;;;22.64;63.01
73681;BME280;61979;53.536;8.082;2022-08-14T03:42:37;101447.03;;;22.65;63.29
73681;BME280;61979;53.536;8.082;2022-08-14T03:43:39;101450.19;;;22.55;64.07
73681;BME280;61979;53.536;8.082;2022-08-14T03:44:40;101453.63;;;22.55;64.01
73681;BME280;61979;53.536;8.082;2022-08-14T03:45:43;101448.00;;;22.47;64.44
73681;BME280;61979;53.536;8.082;2022-08-14T03:46:43;101449.75;;;22.47;63.91
73681;BME280;61979;53.536;8.082;2022-08-14T03:47:44;101445.28;;;22.49;64.08
73681;BME280;61979;53.536;8.082;2022-08-14T03:48:44;101439.84;;;22.36;64.24
73681;BME280;61979;53.536;8.082;2022-08-14T03:49:45;101437.94;;;22.40;64.65
73681;BME280;61979;53.536;8.082;2022-08-14T03:50:47;101441.56;;;22.37;64.03
73681;BME280;61979;53.536;8.082;2022-08-14T03:51:48;101440.53;;;22.40;64.21
73681;BME280;61979;53.536;8.082;2022-08-14T03:52:48;101442.00;;;22.45;63.92
73681;BME280;61979;53.536;8.082;2022-08-14T03:53:49;101440.44;;;22.43;64.23
73681;BME280;61979;53.536;8.082;2022-08-14T03:54:50;101438.88;;;22.39;64.00
73681;BME280;61979;53.536;8.082;2022-08-14T03:55:50;101443.25;;;22.38;63.81
73681;BME280;61979;53.536;8.082;2022-08-14T03:56:56;101436.19;;;22.40;64.24
73681;BME280;61979;53.536;8.082;2022-08-14T03:57:59;101441.34;;;22.42;63.88
73681;BME280;61979;53.536;8.082;2022-08-14T03:59:01;101435.44;;;22.38;63.97
73681;BME280;61979;53.536;8.082;2022-08-14T04:00:08;101440.53;;;22.40;63.68
73681;BME280;61979;53.536;8.082;2022-08-14T04:01:15;101428.88;;;22.48;63.43
73681;BME280;61979;53.536;8.082;2022-08-14T04:02:16;101430.25;;;22.38;63.96
73681;BME280;61979;53.536;8.082;2022-08-14T04:03:17;101430.13;;;22.41;63.58
73681;BME280;61979;53.536;8.082;2022-08-14T04:04:19;101429.81;;;22.47;62.82
73681;BME280;61979;53.536;8.082;2022-08-14T04:05:19;101432.16;;;22.52;63.35
73681;BME280;61979;53.536;8.082;2022-08-14T04:06:20;101421.59;;;22.55;63.17
73681;BME280;61979;53.536;8.082;2022-08-14T04:07:20;101421.97;;;22.64;61.76
73681;BME280;61979;53.536;8.082;2022-08-14T04:08:21;101424.81;;;22.60;62.73
73681;BME280;61979;53.536;8.082;2022-08-14T04:09:22;101415.97;;;22.62;62.62
73681;BME280;61979;53.536;8.082;2022-08-14T04:10:23;101427.16;;;22.64;61.71
73681;BME280;61979;53.536;8.082;2022-08-14T04:11:24;101422.47;;;22.71;62.47
73681;BME280;61979;53.536;8.082;2022-08-14T04:12:24;101416.09;;;22.76;61.94
73681;BME280;61979;53.536;8.082;2022-08-14T04:13:25;101410.09;;;22.76;62.16
73681;BME280;61979;53.536;8.082;2022-08-14T04:14:25;101420.56;;;22.74;62.72
73681;BME280;61979;53.536;8.082;2022-08-14T04:15:28;101411.22;;;22.70;61.92
73681;BME280;61979;53.536;8.082;2022-08-14T04:16:28;101409.91;;;22.63;63.02
73681;BME280;61979;53.536;8.082;2022-08-14T04:17:28;101412.38;;;22.65;62.02
73681;BME280;61979;53.536;8.082;2022-08-14T04:18:29;101415.66;;;22.68;62.53
73681;BME280;61979;53.536;8.082;2022-08-14T04:19:29;101407.56;;;22.74;62.36
73681;BME280;61979;53.536;8.082;2022-08-14T04:20:29;101407.88;;;22.68;62.86
73681;BME280;61979;53.536;8.082;2022-08-14T04:21:30;101406.38;;;22.64;63.11
73681;BME280;61979;53.536;8.082;2022-08-14T04:22:32;101403.78;;;22.64;62.46
73681;BME280;61979;53.536;8.082;2022-08-14T04:23:32;101406.44;;;22.63;63.20
73681;BME280;61979;53.536;8.082;2022-08-14T04:24:34;101401.41;;;22.60;63.56
73681;BME280;61979;53.536;8.082;2022-08-14T04:25:36;101406.38;;;22.64;62.74
73681;BME280;61979;53.536;8.082;2022-08-14T04:26:36;101403.53;;;22.69;63.34
73681;BME280;61979;53.536;8.082;2022-08-14T04:27:36;101402.53;;;22.71;62.75
73681;BME280;61979;53.536;8.082;2022-08-14T04:28:39;101401.69;;;22.71;62.92
73681;BME280;61979;53.536;8.082;2022-08-14T04:29:41;101402.03;;;22.80;62.67
73681;BME280;61979;53.536;8.082;2022-08-14T04:30:42;101400.69;;;22.89;62.16
73681;BME280;61979;53.536;8.082;2022-08-14T04:31:43;101400.00;;;22.70;63.71
73681;BME280;61979;53.536;8.082;2022-08-14T04:32:43;101399.31;;;22.66;63.38
73681;BME280;61979;53.536;8.082;2022-08-14T04:33:44;101395.63;;;22.70;63.07
73681;BME280;61979;53.536;8.082;2022-08-14T04:34:45;101398.22;;;22.70;62.57
73681;BME280;61979;53.536;8.082;2022-08-14T04:35:46;101394.63;;;22.73;63.35
73681;BME280;61979;53.536;8.082;2022-08-14T04:36:46;101391.44;;;22.68;63.71
73681;BME280;61979;53.536;8.082;2022-08-14T04:38:07;101391.34;;;22.69;63.60
73681;BME280;61979;53.536;8.082;2022-08-14T04:39:26;101390.25;;;22.58;63.81
73681;BME280;61979;53.536;8.082;2022-08-14T04:40:45;101384.91;;;22.61;62.73
73681;BME280;61979;53.536;8.082;2022-08-14T04:42:04;101392.00;;;22.57;63.66
73681;BME280;61979;53.536;8.082;2022-08-14T04:43:23;101388.91;;;22.51;63.60
73681;BME280;61979;53.536;8.082;2022-08-14T04:44:35;101382.41;;;22.42;63.83
73681;BME280;61979;53.536;8.082;2022-08-14T04:45:36;101383.34;;;22.41;64.16
73681;BME280;61979;53.536;8.082;2022-08-14T04:46:39;101381.88;;;22.53;63.64
73681;BME280;61979;53.536;8.082;2022-08-14T04:47:42;101375.13;;;22.49;64.23
73681;BME280;61979;53.536;8.082;2022-08-14T04:49:03;101374.41;;;22.62;63.09
73681;BME280;61979;53.536;8.082;2022-08-14T04:50:04;101380.09;;;22.53;64.13
73681;BME280;61979;53.536;8.082;2022-08-14T04:51:08;101380.69;;;22.58;63.62
73681;BME280;61979;53.536;8.082;2022-08-14T04:52:09;101373.75;;;22.59;63.40
73681;BME280;61979;53.536;8.082;2022-08-14T04:53:14;101374.41;;;22.62;63.82
73681;BME280;61979;53.536;8.082;2022-08-14T04:54:15;101376.84;;;22.65;63.43
73681;BME280;61979;53.536;8.082;2022-08-14T04:55:15;101374.81;;;22.70;63.14
73681;BME280;61979;53.536;8.082;2022-08-14T04:56:18;101374.31;;;22.64;63.73
73681;BME280;61979;53.536;8.082;2022-08-14T04:57:21;101376.34;;;22.59;64.33
73681;BME280;61979;53.536;8.082;2022-08-14T04:58:26;101374.81;;;22.70;63.31
73681;BME280;61979;53.536;8.082;2022-08-14T04:59:26;101369.31;;;22.76;63.35
73681;BME280;61979;53.536;8.082;2022-08-14T05:00:27;101366.13;;;22.71;64.06
73681;BME280;61979;53.536;8.082;2022-08-14T05:01:27;101366.59;;;22.62;64.19
73681;BME280;61979;53.536;8.082;2022-08-14T05:02:27;101371.66;;;22.65;64.20
73681;BME280;61979;53.536;8.082;2022-08-14T05:03:30;101367.44;;;22.63;63.77
73681;BME280;61979;53.536;8.082;2022-08-14T05:04:31;101365.47;;;22.68;63.35
73681;BME280;61979;53.536;8.082;2022-08-14T05:05:32;101370.72;;;22.66;64.25
73681;BME280;61979;53.536;8.082;2022-08-14T05:06:33;101369.81;;;22.67;64.01
73681;BME280;61979;53.536;8.082;2022-08-14T05:07:33;101362.25;;;22.78;63.47
73681;BME280;61979;53.536;8.082;2022-08-14T05:08:34;101370.22;;;22.75;63.58
73681;BME280;61979;53.536;8.082;2022-08-14T05:09:34;101364.28;;;22.73;63.16
73681;BME280;61979;53.536;8.082;2022-08-14T05:10:35;101365.03;;;22.75;64.14
73681;BME280;61979;53.536;8.082;2022-08-14T05:11:36;101371.84;;;22.78;63.27
73681;BME280;61979;53.536;8.082;2022-08-14T05:12:36;101371.16;;;22.74;64.11
73681;BME280;61979;53.536;8.082;2022-08-14T05:13:37;101373.59;;;22.77;63.04
73681;BME280;61979;53.536;8.082;2022-08-14T05:14:38;101372.25;;;22.86;62.37
73681;BME280;61979;53.536;8.082;2022-08-14T05:15:39;101364.47;;;22.86;62.82
73681;BME280;61979;53.536;8.082;2022-08-14T05:16:40;101373.94;;;22.87;63.04
73681;BME280;61979;53.536;8.082;2022-08-14T05:17:43;101372.00;;;22.90;62.63
73681;BME280;61979;53.536;8.082;2022-08-14T05:18:44;101370.91;;;22.94;62.98
73681;BME280;61979;53.536;8.082;2022-08-14T05:19:45;101367.13;;;23.00;61.85
73681;BME280;61979;53.536;8.082;2022-08-14T05:20:48;101367.47;;;22.78;63.48
73681;BME280;61979;53.536;8.082;2022-08-14T05:21:49;101369.50;;;22.73;63.82
73681;BME280;61979;53.536;8.082;2022-08-14T05:22:49;101362.38;;;22.77;64.08
73681;BME280;61979;53.536;8.082;2022-08-14T05:23:49;101365.72;;;22.79;64.18
73681;BME280;61979;53.536;8.082;2022-08-14T05:24:51;101366.31;;;22.84;62.98